Time;durP1;ratioP1;P1;durP2;ratioP2;P2;SDS_P1;SDS_P2;PMS_P1;PMS_P2;Temp;Humidity;BMP_temperature;BMP_pressure;BME280_temperature;BME280_humidity;BME280_pressure;Samples;Min_cycle;Max_cycle;Signal;HPM_P1;HPM_P2
2022/12/15 00:38:42;;;;;;;28.10;14.57;;;-5.70;99.90;;;;;;5092071;28;20047;-75
2022/12/15 00:41:08;;;;;;;28.05;15.48;;;-5.70;99.90;;;;;;5077673;28;20100;-76
2022/12/15 00:43:35;;;;;;;27.10;16.10;;;-5.70;99.90;;;;;;5077024;28;20031;-76
2022/12/15 00:48:50;;;;;;;28.25;15.82;;;-5.70;99.90;;;;;;5072958;28;20126;-76
2022/12/15 00:51:16;;;;;;;28.58;15.07;;;-5.70;99.90;;;;;;5064973;28;20069;-76
2022/12/15 01:21:10;;;;;;;26.33;14.85;;;-5.50;99.90;;;;;;5073190;28;20036;-76
2022/12/15 01:23:37;;;;;;;31.73;16.20;;;-5.50;99.90;;;;;;5056510;28;20040;-76
2022/12/15 01:26:05;;;;;;;26.23;14.57;;;-5.50;99.90;;;;;;5056276;28;20040;-76
2022/12/15 01:28:31;;;;;;;31.70;15.93;;;-5.50;99.90;;;;;;5055152;28;20040;-76
2022/12/15 01:30:57;;;;;;;26.48;15.63;;;-5.50;99.90;;;;;;5076742;28;20112;-76
2022/12/15 01:33:22;;;;;;;25.70;14.32;;;-5.50;99.90;;;;;;5076606;28;20413;-77
2022/12/15 01:35:59;;;;;;;30.02;15.73;;;-5.50;99.90;;;;;;5061681;28;20058;-77
2022/12/15 01:38:27;;;;;;;23.23;14.35;;;-5.50;99.90;;;;;;5055172;28;20039;-77
2022/12/15 01:41:03;;;;;;;24.02;14.82;;;-5.50;99.90;;;;;;5058230;28;20031;-77
2022/12/15 01:43:32;;;;;;;30.25;15.75;;;-5.50;99.90;;;;;;5053108;28;21545;-77
2022/12/15 01:46:02;;;;;;;30.15;15.50;;;-5.50;99.90;;;;;;5051911;28;20081;-77
2022/12/15 01:48:41;;;;;;;27.88;15.13;;;-5.50;99.90;;;;;;5054727;28;20493;-77
2022/12/15 01:51:22;;;;;;;28.42;15.82;;;-5.40;99.90;;;;;;5055893;28;20044;-77
2022/12/15 01:54:04;;;;;;;23.92;15.40;;;-5.40;99.90;;;;;;5045249;28;20072;-77
2022/12/15 01:56:32;;;;;;;30.95;15.95;;;-5.30;99.90;;;;;;5052494;28;20036;-77
2022/12/15 01:59:01;;;;;;;29.80;15.85;;;-5.30;99.90;;;;;;5054837;28;20150;-77
2022/12/15 02:01:28;;;;;;;28.17;16.05;;;-5.30;99.90;;;;;;5056380;28;20432;-77
2022/12/15 02:03:54;;;;;;;30.20;16.75;;;-5.20;99.90;;;;;;5054960;28;20036;-77
2022/12/15 02:06:21;;;;;;;35.40;16.90;;;-5.30;99.90;;;;;;5051244;28;20051;-77
2022/12/15 02:08:49;;;;;;;27.13;15.30;;;-5.20;99.90;;;;;;5057329;28;20044;-77
2022/12/15 02:11:49;;;;;;;24.77;15.05;;;-5.30;99.90;;;;;;5067568;28;20046;-77
2022/12/15 02:14:36;;;;;;;28.10;15.43;;;-5.20;99.90;;;;;;5051931;28;20070;-77
2022/12/15 02:17:31;;;;;;;28.38;15.20;;;-5.30;99.90;;;;;;5051679;28;20080;-77
2022/12/15 02:20:44;;;;;;;25.83;15.95;;;-5.30;99.90;;;;;;5054212;28;20102;-77
2022/12/15 02:23:37;;;;;;;22.90;15.10;;;-5.30;99.90;;;;;;4986979;28;20038;-77
2022/12/15 02:26:46;;;;;;;22.92;13.02;;;-5.30;99.90;;;;;;4991253;28;20403;-77
2022/12/15 02:29:26;;;;;;;29.20;14.05;;;-5.30;99.90;;;;;;5039747;28;20425;-77
2022/12/15 02:32:25;;;;;;;27.27;15.65;;;-5.40;99.90;;;;;;5039533;28;20441;-77
2022/12/15 02:35:01;;;;;;;27.95;15.15;;;-5.30;99.90;;;;;;5061260;28;20043;-77
2022/12/15 02:37:31;;;;;;;24.05;13.75;;;-5.30;99.90;;;;;;5058051;28;20032;-77
2022/12/15 02:39:57;;;;;;;24.13;15.73;;;-5.30;99.90;;;;;;5046455;28;20466;-77
2022/12/15 02:42:25;;;;;;;29.13;14.45;;;-5.30;99.90;;;;;;5059088;28;20121;-77
2022/12/15 02:45:08;;;;;;;23.42;13.63;;;-5.30;99.90;;;;;;5058144;28;20101;-77
2022/12/15 02:47:45;;;;;;;25.25;13.93;;;-5.30;99.90;;;;;;5053348;28;20122;-77
2022/12/15 02:50:38;;;;;;;25.85;13.70;;;-5.30;99.90;;;;;;5063363;28;20062;-77
2022/12/15 02:53:13;;;;;;;25.02;13.95;;;-5.30;99.90;;;;;;5065958;28;20040;-77
2022/12/15 02:55:54;;;;;;;30.63;14.35;;;-5.30;99.90;;;;;;5055090;28;20063;-77
2022/12/15 02:58:32;;;;;;;22.02;12.63;;;-5.20;99.90;;;;;;5061726;28;20513;-77
2022/12/15 03:01:07;;;;;;;24.77;13.98;;;-5.30;99.90;;;;;;5054257;28;20051;-77
2022/12/15 03:03:34;;;;;;;25.33;13.30;;;-5.20;99.90;;;;;;5070406;28;20039;-77
2022/12/15 03:06:01;;;;;;;24.10;13.23;;;-5.30;99.90;;;;;;5057636;28;20051;-77
2022/12/15 03:08:28;;;;;;;25.10;14.90;;;-5.30;99.90;;;;;;5057578;28;20071;-77
2022/12/15 03:10:55;;;;;;;21.98;13.55;;;-5.30;99.90;;;;;;5059479;28;20031;-77
2022/12/15 03:13:22;;;;;;;26.13;13.88;;;-5.30;99.90;;;;;;5070534;28;20395;-77
2022/12/15 03:15:48;;;;;;;27.38;13.90;;;-5.30;99.90;;;;;;5059104;28;20106;-77
2022/12/15 03:18:14;;;;;;;22.88;14.10;;;-5.30;99.90;;;;;;5057947;28;20047;-77
2022/12/15 03:20:40;;;;;;;23.63;14.73;;;-5.30;99.90;;;;;;5065134;28;20260;-77
2022/12/15 03:23:06;;;;;;;22.23;13.38;;;-5.30;99.90;;;;;;5058667;28;20115;-77
2022/12/15 03:25:31;;;;;;;22.42;13.77;;;-5.30;99.90;;;;;;5051471;28;20067;-77
2022/12/15 03:27:58;;;;;;;23.60;13.23;;;-5.30;99.90;;;;;;5057925;28;20043;-77
2022/12/15 03:30:24;;;;;;;25.52;14.18;;;-5.30;99.90;;;;;;5058259;28;20136;-77
2022/12/15 03:32:49;;;;;;;22.90;13.15;;;-5.40;99.90;;;;;;5050238;28;20644;-77
2022/12/15 03:35:17;;;;;;;23.48;13.70;;;-5.30;99.90;;;;;;5051659;28;20436;-77
2022/12/15 03:37:43;;;;;;;25.02;14.00;;;-5.40;99.90;;;;;;5057753;28;20047;-77
2022/12/15 03:40:10;;;;;;;22.88;13.75;;;-5.30;99.90;;;;;;5058158;28;20044;-77
2022/12/15 03:42:47;;;;;;;22.75;13.88;;;-5.30;99.90;;;;;;5073449;28;20390;-77
2022/12/15 03:45:23;;;;;;;23.27;14.38;;;-5.30;99.90;;;;;;5052592;28;20044;-77
2022/12/15 03:47:50;;;;;;;25.13;13.73;;;-5.30;99.90;;;;;;5060161;28;20044;-77
2022/12/15 03:50:21;;;;;;;27.13;14.45;;;-5.30;99.90;;;;;;5075016;28;20215;-77
2022/12/15 03:52:59;;;;;;;23.52;13.52;;;-5.30;99.90;;;;;;5057924;28;20032;-77
2022/12/15 03:55:27;;;;;;;24.92;13.60;;;-5.30;99.90;;;;;;5058245;28;20050;-77
2022/12/15 03:57:53;;;;;;;28.05;14.57;;;-5.20;99.90;;;;;;5058373;28;20067;-77
2022/12/15 04:00:20;;;;;;;26.50;14.27;;;-5.20;99.90;;;;;;5058814;28;20040;-77
2022/12/15 04:02:47;;;;;;;24.02;13.30;;;-5.20;99.90;;;;;;5078233;22;20435;-82
2022/12/15 04:05:29;;;;;;;28.10;13.95;;;-5.30;99.90;;;;;;5076235;28;20055;-82
2022/12/15 04:07:57;;;;;;;23.38;12.90;;;-5.30;99.90;;;;;;5073535;28;20053;-82
2022/12/15 04:10:24;;;;;;;23.80;13.65;;;-5.30;99.90;;;;;;5082229;28;20127;-82
2022/12/15 04:13:00;;;;;;;23.80;13.50;;;-5.30;99.90;;;;;;5086081;27;20378;-82
2022/12/15 04:15:26;;;;;;;25.75;14.18;;;-5.30;99.90;;;;;;5127621;27;20091;-82
2022/12/15 04:17:51;;;;;;;22.45;13.50;;;-5.30;99.90;;;;;;5102871;27;20374;-82
2022/12/15 04:20:17;;;;;;;24.88;14.27;;;-5.30;99.90;;;;;;5103189;27;20031;-83
2022/12/15 04:22:46;;;;;;;24.00;13.80;;;-5.30;99.90;;;;;;5102486;27;20489;-82
2022/12/15 05:33:58;;;;;;;24.15;12.43;;;-5.50;99.90;;;;;;5107180;28;20050;-82
2022/12/15 05:36:23;;;;;;;23.55;13.13;;;-5.50;99.90;;;;;;5094318;28;20040;-83
2022/12/15 05:38:52;;;;;;;23.70;14.07;;;-5.40;99.90;;;;;;5115204;27;20122;-82
2022/12/15 05:41:20;;;;;;;26.00;13.40;;;-5.40;99.90;;;;;;5113976;28;21438;-82
2022/12/15 05:43:46;;;;;;;25.02;12.93;;;-5.40;99.90;;;;;;5097723;28;20036;-83
2022/12/15 05:46:13;;;;;;;23.83;12.90;;;-5.40;99.90;;;;;;5107992;28;20039;-82
2022/12/15 05:48:39;;;;;;;25.20;12.90;;;-5.40;99.90;;;;;;5101274;27;20108;-82
2022/12/15 05:51:07;;;;;;;22.25;12.57;;;-5.40;99.90;;;;;;5128380;27;20477;-82
2022/12/15 05:53:33;;;;;;;21.40;13.20;;;-5.50;99.90;;;;;;5100238;27;20039;-82
2022/12/15 05:56:04;;;;;;;18.30;11.27;;;-5.50;99.90;;;;;;5129795;27;20088;-82
2022/12/15 05:58:30;;;;;;;25.08;13.82;;;-5.50;99.90;;;;;;5103916;27;20038;-82
2022/12/15 06:01:14;;;;;;;22.27;13.43;;;-5.50;99.90;;;;;;5098508;27;20023;-83
2022/12/15 06:03:41;;;;;;;23.33;12.57;;;-5.50;99.90;;;;;;5107364;27;20441;-83
2022/12/15 06:06:08;;;;;;;22.00;12.02;;;-5.60;99.90;;;;;;5093610;28;20061;-82
2022/12/15 06:08:35;;;;;;;24.92;13.60;;;-5.60;99.90;;;;;;5117996;27;20038;-82
2022/12/15 06:11:01;;;;;;;24.05;13.02;;;-5.60;99.90;;;;;;5132874;27;20047;-82
2022/12/15 06:13:33;;;;;;;26.00;13.55;;;-5.60;99.90;;;;;;5099354;27;20039;-80
2022/12/15 06:16:03;;;;;;;22.33;12.90;;;-5.60;99.90;;;;;;5111078;27;20031;-82
2022/12/15 06:18:32;;;;;;;21.05;12.15;;;-5.60;99.90;;;;;;5105044;27;20050;-81
2022/12/15 06:21:00;;;;;;;20.67;13.43;;;-5.60;99.90;;;;;;5100688;27;20025;-81
2022/12/15 06:23:27;;;;;;;24.67;12.85;;;-5.60;99.90;;;;;;5117407;27;20043;-81
2022/12/15 06:25:54;;;;;;;22.92;12.88;;;-5.60;99.90;;;;;;5115844;27;20031;-82
2022/12/15 06:28:22;;;;;;;24.23;13.30;;;-5.60;99.90;;;;;;5108512;27;20043;-81
2022/12/15 06:30:51;;;;;;;21.55;12.48;;;-5.60;99.90;;;;;;5123872;27;20562;-81
2022/12/15 06:33:16;;;;;;;18.42;12.02;;;-5.60;99.90;;;;;;5112569;27;20060;-80
2022/12/15 06:35:42;;;;;;;21.17;11.73;;;-5.60;99.90;;;;;;5095865;28;20122;-78
2022/12/15 06:38:07;;;;;;;24.27;12.93;;;-5.60;99.90;;;;;;5083353;28;20116;-78
2022/12/15 06:40:33;;;;;;;21.10;11.27;;;-5.50;99.90;;;;;;5090202;27;20050;-81
2022/12/15 06:42:58;;;;;;;19.60;11.10;;;-5.50;99.90;;;;;;5107000;27;20404;-81
2022/12/15 06:45:24;;;;;;;22.00;12.20;;;-5.50;99.90;;;;;;5109557;27;20050;-81
2022/12/15 06:47:49;;;;;;;22.33;11.48;;;-5.50;99.90;;;;;;5109804;27;20054;-80
2022/12/15 06:50:15;;;;;;;21.63;13.18;;;-5.40;99.90;;;;;;5134738;27;20039;-80
2022/12/15 06:52:41;;;;;;;23.35;12.40;;;-5.40;99.90;;;;;;5135115;27;20058;-80
2022/12/15 06:55:07;;;;;;;24.73;12.25;;;-5.40;99.90;;;;;;5102075;27;20036;-80
2022/12/15 06:57:32;;;;;;;24.40;12.52;;;-5.30;99.90;;;;;;5095208;27;20035;-81
2022/12/15 06:59:58;;;;;;;19.33;11.73;;;-5.30;99.90;;;;;;5136205;27;20459;-83
2022/12/15 07:02:24;;;;;;;22.88;12.77;;;-5.30;99.90;;;;;;5108846;27;20122;-81
2022/12/15 07:04:49;;;;;;;20.17;11.48;;;-5.40;99.90;;;;;;5101826;27;20060;-80
2022/12/15 07:07:15;;;;;;;22.20;12.48;;;-5.30;99.90;;;;;;5096126;27;20095;-80
2022/12/15 07:09:41;;;;;;;20.67;12.68;;;-5.30;99.90;;;;;;5101063;27;20091;-80
2022/12/15 07:12:08;;;;;;;25.70;13.07;;;-5.20;99.90;;;;;;5120499;27;20059;-80
2022/12/15 07:14:33;;;;;;;22.85;13.55;;;-5.10;99.90;;;;;;5106091;27;20047;-81
2022/12/15 07:16:59;;;;;;;22.42;13.05;;;-5.00;99.90;;;;;;5120692;27;20136;-80
2022/12/15 07:19:25;;;;;;;19.40;13.00;;;-5.00;99.90;;;;;;5097734;27;20032;-82
2022/12/15 07:21:51;;;;;;;26.63;13.38;;;-5.00;99.90;;;;;;5114882;27;20027;-77
2022/12/15 07:24:17;;;;;;;23.15;13.30;;;-4.90;99.90;;;;;;5114583;27;20464;-81
2022/12/15 07:26:44;;;;;;;29.08;13.57;;;-4.90;99.90;;;;;;5099994;27;20124;-81
2022/12/15 07:29:10;;;;;;;24.23;12.75;;;-4.90;99.90;;;;;;5106882;27;20412;-82
2022/12/15 07:31:36;;;;;;;21.13;12.02;;;-4.90;99.90;;;;;;5117660;27;20130;-82
2022/12/15 07:34:02;;;;;;;19.40;13.20;;;-4.90;99.90;;;;;;5119491;27;20034;-83
2022/12/15 07:36:27;;;;;;;25.77;13.32;;;-4.90;99.90;;;;;;5119053;27;20039;-82
2022/12/15 07:38:59;;;;;;;20.13;11.68;;;-4.90;99.90;;;;;;5135891;27;20027;-83
2022/12/15 07:41:26;;;;;;;21.95;12.45;;;-4.90;99.90;;;;;;5136879;27;20038;-83
2022/12/15 07:43:52;;;;;;;23.58;13.00;;;-4.90;99.90;;;;;;5119757;27;20121;-83
2022/12/15 07:46:18;;;;;;;21.00;12.93;;;-4.90;99.90;;;;;;5137880;27;20074;-82
2022/12/15 07:48:44;;;;;;;18.88;11.85;;;-4.90;99.90;;;;;;5139051;27;20047;-82
2022/12/15 07:51:10;;;;;;;24.10;12.27;;;-4.90;99.90;;;;;;5122305;27;20042;-83
2022/12/15 07:53:36;;;;;;;22.08;12.63;;;-4.90;99.90;;;;;;5138598;27;20054;-83
2022/12/15 07:56:04;;;;;;;20.63;12.65;;;-4.80;99.90;;;;;;5139361;27;20034;-83
2022/12/15 07:58:30;;;;;;;22.85;12.55;;;-4.80;99.90;;;;;;5138549;27;20064;-83
2022/12/15 08:01:00;;;;;;;20.33;11.88;;;-4.70;99.90;;;;;;5122435;27;20357;-83
2022/12/15 08:03:27;;;;;;;19.50;12.27;;;-4.60;99.90;;;;;;5121950;27;20031;-83
2022/12/15 08:05:53;;;;;;;24.52;12.38;;;-4.60;99.90;;;;;;5122004;27;20038;-83
2022/12/15 08:08:20;;;;;;;20.95;12.23;;;-4.60;99.90;;;;;;5121660;27;20121;-83
2022/12/15 08:10:45;;;;;;;20.67;12.30;;;-4.50;99.90;;;;;;5139335;27;20442;-83
2022/12/15 08:13:12;;;;;;;19.17;12.80;;;-4.50;99.90;;;;;;5122044;27;20050;-83
2022/12/15 08:15:38;;;;;;;29.17;13.75;;;-4.40;99.90;;;;;;5138739;27;20030;-83
2022/12/15 08:18:05;;;;;;;21.70;11.90;;;-4.40;99.90;;;;;;5139139;27;20031;-83
2022/12/15 08:20:31;;;;;;;22.33;11.93;;;-4.30;99.90;;;;;;5121856;27;20060;-83
2022/12/15 08:22:57;;;;;;;21.25;12.50;;;-4.20;99.90;;;;;;5139952;27;20038;-83
2022/12/15 08:25:23;;;;;;;25.13;11.85;;;-4.00;99.90;;;;;;5139536;27;20132;-83
2022/12/15 08:27:50;;;;;;;25.83;12.80;;;-3.90;99.90;;;;;;5139042;27;20035;-83
2022/12/15 08:30:17;;;;;;;23.35;13.02;;;-3.90;99.90;;;;;;5122340;27;20481;-83
2022/12/15 08:32:43;;;;;;;26.38;12.82;;;-3.80;99.90;;;;;;5139018;27;20042;-83
2022/12/15 08:35:09;;;;;;;21.60;12.82;;;-3.80;99.90;;;;;;5139501;27;20523;-83
2022/12/15 08:37:35;;;;;;;22.42;12.88;;;-3.60;99.90;;;;;;5139286;27;20039;-83
2022/12/15 08:40:00;;;;;;;22.92;12.60;;;-3.50;99.90;;;;;;5139573;27;20042;-83
2022/12/15 08:42:26;;;;;;;17.83;12.18;;;-3.50;99.90;;;;;;5140019;27;20034;-83
2022/12/15 08:44:51;;;;;;;25.70;13.63;;;-3.50;99.90;;;;;;5122619;27;20066;-83
2022/12/15 08:47:17;;;;;;;24.75;13.60;;;-3.50;99.90;;;;;;5123630;27;20391;-83
2022/12/15 08:49:43;;;;;;;22.65;13.20;;;-3.40;99.90;;;;;;5140970;27;20095;-83
2022/12/15 08:52:08;;;;;;;21.42;12.02;;;-3.50;99.90;;;;;;5122993;27;20069;-82
2022/12/15 08:54:34;;;;;;;21.13;12.48;;;-3.40;99.90;;;;;;5140969;27;20070;-82
2022/12/15 08:57:00;;;;;;;18.08;11.40;;;-3.40;99.90;;;;;;5122723;27;20114;-83
2022/12/15 08:59:26;;;;;;;24.50;11.80;;;-3.40;99.90;;;;;;5140629;27;20059;-82
2022/12/15 09:01:51;;;;;;;20.15;11.63;;;-3.40;99.90;;;;;;5140479;27;20125;-83
2022/12/15 09:04:17;;;;;;;18.30;11.48;;;-3.40;99.90;;;;;;5123290;27;20066;-82
2022/12/15 09:06:43;;;;;;;20.63;12.13;;;-3.30;99.90;;;;;;5124092;27;20043;-82
2022/12/15 09:09:11;;;;;;;25.27;12.35;;;-3.20;99.90;;;;;;5141044;27;20039;-82
2022/12/15 09:11:36;;;;;;;21.65;12.77;;;-3.20;99.90;;;;;;5123915;27;20035;-82
2022/12/15 09:14:03;;;;;;;21.58;12.45;;;-3.10;99.90;;;;;;5124515;27;20358;-82
2022/12/15 09:16:29;;;;;;;19.33;11.93;;;-3.00;99.90;;;;;;5124869;27;20039;-83
2022/12/15 09:18:57;;;;;;;23.95;12.95;;;-2.90;99.90;;;;;;5124039;27;20026;-83
2022/12/15 09:21:25;;;;;;;33.13;25.90;;;-2.80;99.90;;;;;;5125081;27;20091;-83
2022/12/15 09:23:52;;;;;;;21.63;13.45;;;-2.70;99.90;;;;;;5124715;27;20484;-83
2022/12/15 09:26:20;;;;;;;23.85;13.15;;;-2.60;99.90;;;;;;5125279;27;20091;-83
2022/12/15 09:28:46;;;;;;;35.20;28.02;;;-2.40;99.90;;;;;;5143034;27;20042;-83
2022/12/15 09:31:15;;;;;;;27.17;14.25;;;-2.20;99.90;;;;;;5142158;27;20041;-83
2022/12/15 09:33:42;;;;;;;24.20;13.60;;;-2.00;99.90;;;;;;5125884;27;20034;-83
2022/12/15 09:36:09;;;;;;;26.17;13.57;;;-1.80;99.90;;;;;;5142260;27;20128;-83
2022/12/15 09:38:39;;;;;;;39.33;30.10;;;-1.60;99.90;;;;;;5119978;27;20521;-83
2022/12/15 09:41:13;;;;;;;38.03;30.23;;;-1.50;99.90;;;;;;5136917;27;20043;-83
2022/12/15 09:43:50;;;;;;;38.45;29.02;;;-1.40;99.90;;;;;;5119647;27;20396;-84
2022/12/15 09:46:22;;;;;;;27.63;15.52;;;-1.20;99.90;;;;;;5137766;27;20035;-84
2022/12/15 09:48:50;;;;;;;25.83;14.30;;;-1.10;99.90;;;;;;5120371;27;20515;-84
2022/12/15 09:51:17;;;;;;;38.38;29.08;;;-1.00;99.90;;;;;;5119832;27;20039;-83
2022/12/15 09:53:43;;;;;;;33.25;27.38;;;-0.90;99.90;;;;;;5137616;27;20445;-83
2022/12/15 09:56:22;;;;;;;34.50;28.30;;;-0.80;99.90;;;;;;5120780;27;20035;-83
2022/12/15 09:59:26;;;;;;;31.05;26.33;;;-0.70;99.90;;;;;;5137128;27;20488;-83
2022/12/15 10:02:08;;;;;;;33.47;25.38;;;-0.60;99.90;;;;;;5138061;27;20043;-84
2022/12/15 10:04:56;;;;;;;27.92;23.70;;;-0.60;99.90;;;;;;5083256;22;20052;-84
2022/12/15 10:07:33;;;;;;;29.75;22.60;;;-0.60;99.90;;;;;;5039831;28;20502;-83
2022/12/15 10:10:03;;;;;;;28.38;23.15;;;-0.70;99.90;;;;;;5040405;28;20178;-83
2022/12/15 10:12:36;;;;;;;25.63;21.15;;;-0.80;99.90;;;;;;5039920;28;20047;-84
2022/12/15 10:15:21;;;;;;;26.42;22.08;;;-0.90;99.90;;;;;;5075881;28;20134;-84
2022/12/15 10:17:56;;;;;;;27.58;23.13;;;-0.90;99.90;;;;;;5059999;28;20418;-84
2022/12/15 10:20:25;;;;;;;25.90;21.80;;;-0.90;99.90;;;;;;5077061;28;20040;-84
2022/12/15 10:22:51;;;;;;;26.00;21.55;;;-0.80;99.90;;;;;;5076823;28;20074;-83
2022/12/15 10:25:24;;;;;;;28.48;24.30;;;-0.80;99.90;;;;;;5060990;28;20044;-85
2022/12/15 10:28:14;;;;;;;29.65;24.23;;;-0.60;99.90;;;;;;5062030;28;20130;-84
2022/12/15 10:30:50;;;;;;;28.95;23.75;;;-0.50;99.90;;;;;;5061708;28;20075;-85
2022/12/15 10:33:18;;;;;;;31.67;23.90;;;-0.40;99.90;;;;;;5061872;28;20054;-84
2022/12/15 10:35:45;;;;;;;26.90;22.90;;;-0.30;99.90;;;;;;5063307;28;20474;-84
2022/12/15 10:38:44;;;;;;;29.05;23.80;;;-0.30;99.90;;;;;;5064816;28;20086;-83
2022/12/15 10:41:21;;;;;;;26.55;22.13;;;-0.30;99.90;;;;;;5064983;28;20036;-84
2022/12/15 10:43:49;;;;;;;27.50;22.45;;;-0.20;99.90;;;;;;5081551;28;20040;-84
2022/12/15 10:46:28;;;;;;;28.90;22.85;;;-0.20;99.90;;;;;;5081786;28;20405;-83
2022/12/15 10:49:20;;;;;;;25.42;21.73;;;-0.10;99.90;;;;;;5081691;28;20127;-84
2022/12/15 10:51:54;;;;;;;26.05;23.25;;;-0.10;99.90;;;;;;5082254;28;20497;-84
2022/12/15 10:54:21;;;;;;;27.42;23.17;;;0.00;99.90;;;;;;5082589;28;20383;-83
2022/12/15 10:56:58;;;;;;;27.67;22.38;;;0.00;99.90;;;;;;5082484;28;20039;-84
2022/12/15 10:59:37;;;;;;;26.65;22.17;;;0.10;99.90;;;;;;5066187;28;20044;-84
2022/12/15 11:02:23;;;;;;;27.98;23.30;;;0.20;99.90;;;;;;5066382;28;20036;-84
2022/12/15 11:05:19;;;;;;;28.15;23.73;;;0.30;99.90;;;;;;5066404;28;20036;-84
2022/12/15 11:08:11;;;;;;;26.10;22.48;;;0.40;99.90;;;;;;5050099;28;20542;-84
2022/12/15 11:13:37;;;;;;;23.02;20.60;;;0.60;99.90;;;;;;5077418;28;20063;-84
2022/12/15 11:16:15;;;;;;;24.65;20.67;;;0.70;99.90;;;;;;5060901;28;20082;-84
2022/12/15 11:18:57;;;;;;;23.10;20.60;;;0.70;99.90;;;;;;5077379;28;20041;-84
2022/12/15 11:21:27;;;;;;;23.85;20.98;;;0.70;99.90;;;;;;5078107;28;20122;-84
2022/12/15 11:24:11;;;;;;;26.20;21.67;;;0.80;99.90;;;;;;5061259;28;20127;-84
2022/12/15 11:26:51;;;;;;;26.63;21.02;;;1.00;99.90;;;;;;5061412;28;20040;-84
2022/12/15 11:29:50;;;;;;;21.65;19.42;;;1.10;99.90;;;;;;5077650;28;20089;-84
2022/12/15 11:32:21;;;;;;;25.13;20.65;;;1.20;99.90;;;;;;5077836;28;20054;-84
2022/12/15 11:34:47;;;;;;;22.40;20.00;;;1.30;99.90;;;;;;5061000;28;20040;-84
2022/12/15 11:37:42;;;;;;;22.20;19.65;;;1.50;99.90;;;;;;5077378;28;20558;-84
2022/12/15 11:40:22;;;;;;;20.90;18.65;;;1.60;99.90;;;;;;5077866;28;20044;-83
2022/12/15 11:43:17;;;;;;;20.73;18.48;;;1.80;99.90;;;;;;5061066;28;20036;-83
2022/12/15 11:45:58;;;;;;;21.63;18.10;;;2.00;99.90;;;;;;5077641;28;20040;-83
2022/12/15 11:48:56;;;;;;;18.10;16.17;;;2.20;99.90;;;;;;5060702;28;20040;-84
2022/12/15 11:51:37;;;;;;;19.55;16.65;;;2.40;99.90;;;;;;5061014;28;20127;-84
2022/12/15 11:54:28;;;;;;;18.17;16.27;;;2.60;99.90;;;;;;5077595;28;20036;-83
2022/12/15 11:57:20;;;;;;;18.45;16.58;;;2.90;99.90;;;;;;5061289;28;20451;-84
2022/12/15 12:00:08;;;;;;;17.42;15.40;;;3.10;99.90;;;;;;5030926;28;20048;-84
2022/12/15 12:02:48;;;;;;;18.48;15.77;;;3.30;99.90;;;;;;5062344;28;20040;-83
2022/12/15 12:05:44;;;;;;;19.67;15.15;;;3.40;99.90;;;;;;5061448;28;20523;-84
2022/12/15 12:08:44;;;;;;;17.33;15.52;;;3.30;99.90;;;;;;5061121;28;20040;-84
2022/12/15 12:11:14;;;;;;;16.88;14.23;;;3.20;99.90;;;;;;5062229;28;20036;-83
2022/12/15 12:13:55;;;;;;;16.45;13.98;;;3.10;99.90;;;;;;5061645;28;20040;-85
2022/12/15 12:16:24;;;;;;;16.25;14.05;;;2.80;99.90;;;;;;5061617;28;20093;-83
2022/12/15 12:19:10;;;;;;;17.95;15.43;;;2.50;99.90;;;;;;5078402;28;20055;-83
2022/12/15 12:21:44;;;;;;;20.55;15.20;;;2.50;99.90;;;;;;5061936;28;20043;-83
2022/12/15 12:24:31;;;;;;;16.77;15.07;;;2.50;99.90;;;;;;5078360;28;20036;-83
2022/12/15 12:27:11;;;;;;;16.63;14.15;;;2.70;99.90;;;;;;5062865;28;20153;-84
2022/12/15 12:29:48;;;;;;;15.75;13.93;;;2.80;99.90;;;;;;5064881;28;20048;-83
2022/12/15 12:32:39;;;;;;;15.85;13.77;;;2.90;99.90;;;;;;5065559;28;20063;-84
2022/12/15 12:35:07;;;;;;;16.45;13.63;;;3.00;99.90;;;;;;5082866;28;20036;-84
2022/12/15 12:37:48;;;;;;;17.92;14.32;;;3.10;99.90;;;;;;5084767;28;20046;-84
2022/12/15 12:40:21;;;;;;;16.15;13.57;;;3.10;99.90;;;;;;5086794;28;20036;-83
2022/12/15 12:42:56;;;;;;;14.55;13.05;;;3.20;99.90;;;;;;5086620;28;20032;-83
2022/12/15 12:45:35;;;;;;;15.88;12.93;;;3.20;99.90;;;;;;5071036;28;20040;-83
2022/12/15 12:48:32;;;;;;;14.15;11.98;;;3.20;99.90;;;;;;5087204;28;20127;-82
2022/12/15 12:51:29;;;;;;;14.60;12.68;;;3.20;99.90;;;;;;5071658;28;20063;-83
2022/12/15 12:53:56;;;;;;;14.50;12.73;;;3.30;99.90;;;;;;5073276;28;20084;-83
2022/12/15 12:56:34;;;;;;;19.15;13.57;;;3.20;99.90;;;;;;5088275;28;20040;-83
2022/12/15 12:59:06;;;;;;;14.60;12.50;;;3.20;99.90;;;;;;5087274;28;20040;-83
2022/12/15 13:01:34;;;;;;;15.73;13.73;;;3.20;99.90;;;;;;5072921;28;20060;-83
2022/12/15 13:04:06;;;;;;;14.27;12.77;;;3.10;99.90;;;;;;5090083;28;20028;-83
2022/12/15 13:06:34;;;;;;;16.65;13.85;;;3.10;99.90;;;;;;5073876;28;20040;-82
2022/12/15 13:09:15;;;;;;;15.77;13.50;;;3.00;99.90;;;;;;5089489;28;20114;-82
2022/12/15 13:11:47;;;;;;;16.88;13.85;;;2.90;99.90;;;;;;5090230;28;20754;-82
2022/12/15 13:14:16;;;;;;;15.32;13.70;;;2.90;99.90;;;;;;5074564;28;20048;-82
2022/12/15 13:16:45;;;;;;;16.02;14.05;;;2.80;99.90;;;;;;5091644;28;20056;-82
2022/12/15 13:19:12;;;;;;;16.80;14.75;;;2.80;99.90;;;;;;5091379;28;20044;-83
2022/12/15 13:21:41;;;;;;;17.08;14.02;;;2.70;99.90;;;;;;5081884;28;20053;-82
2022/12/15 13:24:49;;;;;;;19.20;14.80;;;2.70;99.90;;;;;;5080880;28;20143;-82
2022/12/15 13:27:15;;;;;;;17.02;15.23;;;2.60;99.90;;;;;;5071525;28;20047;-82
2022/12/15 13:30:14;;;;;;;17.30;15.40;;;2.60;99.90;;;;;;5078584;28;20497;-81
2022/12/15 13:32:50;;;;;;;19.85;15.60;;;2.50;99.90;;;;;;5017437;28;20051;-81
2022/12/15 13:35:30;;;;;;;17.58;15.65;;;2.50;99.90;;;;;;5078130;28;20043;-82
2022/12/15 13:38:06;;;;;;;17.23;14.88;;;2.50;99.90;;;;;;5062214;28;20482;-82
2022/12/15 13:40:35;;;;;;;17.92;15.55;;;2.40;99.90;;;;;;5061930;28;20537;-82
2022/12/15 13:43:03;;;;;;;18.13;16.23;;;2.40;99.90;;;;;;5078377;28;20044;-81
2022/12/15 13:45:55;;;;;;;17.50;15.60;;;2.30;99.90;;;;;;5061675;28;20062;-81
2022/12/15 13:48:40;;;;;;;18.95;16.95;;;2.20;99.90;;;;;;5078513;28;20044;-81
2022/12/15 13:51:24;;;;;;;20.33;16.90;;;2.20;99.90;;;;;;5077764;28;20028;-81
2022/12/15 13:54:21;;;;;;;22.08;17.05;;;2.10;99.90;;;;;;5078534;28;20047;-81
2022/12/15 13:57:03;;;;;;;19.08;17.02;;;2.00;99.90;;;;;;5079276;28;20048;-83
2022/12/15 13:59:32;;;;;;;18.95;16.52;;;1.90;99.90;;;;;;5079211;28;20413;-82
2022/12/15 14:01:58;;;;;;;19.92;17.33;;;1.90;99.90;;;;;;5080254;28;20379;-82
2022/12/15 14:04:25;;;;;;;21.17;16.50;;;1.90;99.90;;;;;;5062265;28;20040;-82
2022/12/15 14:06:56;;;;;;;20.60;17.17;;;1.80;99.90;;;;;;5063641;28;20036;-82
2022/12/15 14:09:35;;;;;;;19.60;17.48;;;1.70;99.90;;;;;;5063436;28;20047;-83
2022/12/15 14:12:04;;;;;;;19.45;17.10;;;1.70;99.90;;;;;;5083134;28;20047;-82
2022/12/15 14:14:36;;;;;;;24.65;18.15;;;1.60;99.90;;;;;;5082655;28;20095;-82
2022/12/15 14:17:08;;;;;;;22.90;19.23;;;1.60;99.90;;;;;;5065859;28;20417;-82
2022/12/15 14:19:43;;;;;;;22.50;18.02;;;1.60;99.90;;;;;;5081686;28;20042;-82
2022/12/15 14:22:23;;;;;;;20.52;17.52;;;1.50;99.90;;;;;;5065312;28;20071;-82
2022/12/15 14:24:51;;;;;;;20.98;18.15;;;1.40;99.90;;;;;;5081942;28;20036;-82
2022/12/15 14:27:25;;;;;;;21.08;18.48;;;1.40;99.90;;;;;;5081588;28;20064;-82
2022/12/15 14:30:27;;;;;;;20.58;18.38;;;1.30;99.90;;;;;;5064954;28;20105;-82
2022/12/15 14:33:07;;;;;;;21.98;18.70;;;1.40;99.90;;;;;;5065835;28;20053;-82
2022/12/15 14:35:40;;;;;;;19.67;17.23;;;1.30;99.90;;;;;;5081849;28;20035;-82
2022/12/15 14:38:10;;;;;;;20.08;17.80;;;1.30;99.90;;;;;;5064962;28;20040;-82
2022/12/15 14:40:38;;;;;;;20.60;18.35;;;1.30;99.90;;;;;;5082154;28;20036;-82
2022/12/15 14:43:10;;;;;;;21.92;18.55;;;1.20;99.90;;;;;;5064838;28;20062;-82
2022/12/15 14:45:36;;;;;;;23.05;19.30;;;1.20;99.90;;;;;;5081887;28;20046;-82
2022/12/15 14:48:07;;;;;;;20.77;18.08;;;1.10;99.90;;;;;;5064389;28;20155;-81
2022/12/15 14:50:34;;;;;;;22.10;18.67;;;1.10;99.90;;;;;;5064457;28;20057;-82
2022/12/15 14:53:05;;;;;;;22.73;19.20;;;1.00;99.90;;;;;;5063663;28;20095;-82
2022/12/15 14:55:34;;;;;;;22.55;20.15;;;1.00;99.90;;;;;;5064207;28;20075;-82
2022/12/15 14:58:00;;;;;;;21.70;19.35;;;0.90;99.90;;;;;;5080440;28;20044;-82
2022/12/15 15:00:34;;;;;;;24.33;20.85;;;0.90;99.90;;;;;;5080811;28;20039;-82
2022/12/15 15:03:20;;;;;;;23.63;20.50;;;0.80;99.90;;;;;;5080669;28;20089;-82
2022/12/15 15:06:17;;;;;;;22.20;19.83;;;0.80;99.90;;;;;;5064008;28;20043;-82
2022/12/15 15:08:51;;;;;;;22.90;20.70;;;0.80;99.90;;;;;;5080877;28;20036;-82
2022/12/15 15:11:28;;;;;;;25.48;21.25;;;0.70;99.90;;;;;;5080971;28;20428;-82
2022/12/15 15:13:55;;;;;;;24.00;21.30;;;0.60;99.90;;;;;;5064437;28;20040;-82
2022/12/15 15:16:21;;;;;;;24.50;21.83;;;0.60;99.90;;;;;;5081431;28;20644;-82
2022/12/15 15:18:52;;;;;;;26.13;22.40;;;0.50;99.90;;;;;;5081206;28;20036;-82